KLWB

Greenbrier Valley Airport

Lewisburg, West Virginia, USA
METAR KLWB 191115Z AUTO 00000KT 10SM CLR M05/M06 A3009 RMK AO2 T10491060
Observed Flight Rules
Dec-19 @ 11:15 UTC (24 minutes ago) Visual Flight Rules
Visibility Clouds
10 miles
  • Clear skies
Temperatures Readings
Current -5°C / 23°F
Dewpoint -6°C / 21°F
Humidity 93%
Altimeter 30.09" Hg
Pressure 1019 hPa
Elevation 702
METAR KLWB 191115Z AUTO 00000KT 10SM CLR M05/M06 A3009 RMK AO2 T10491060
Observed Flight Rules
Dec-19 @ 11:15 UTC
(24 minutes ago)
VFR
Clouds
  • Clear skies
Temperature Dewpoint
-5°C / 23°F -6°C / 21°F
Humidity Altimeter Pressure
93% 30.09" Hg 1019 hPa